Time;durP1;ratioP1;P1;durP2;ratioP2;P2;SDS_P1;SDS_P2;PMS_P1;PMS_P2;Temp;Humidity;BMP_temperature;BMP_pressure;BME280_temperature;BME280_humidity;BME280_pressure;Samples;Min_cycle;Max_cycle;Signal;HPM_P1;HPM_P2
2023/08/13 00:01:21;;;;;;;9.40;5.50;;;;;;;21.80;53.10;100442.03;109763;1268;23610;-80
2023/08/13 00:03:53;;;;;;;16.30;6.10;;;;;;;21.80;53.10;100437.11;109417;1272;23836;-78
2023/08/13 00:06:25;;;;;;;17.30;6.30;;;;;;;21.78;53.18;100433.70;109443;1268;22012;-78
2023/08/13 00:08:59;;;;;;;6.00;5.40;;;;;;;21.77;53.29;100436.27;109955;1266;21981;-78
2023/08/13 00:11:35;;;;;;;7.10;4.50;;;;;;;21.76;53.31;100437.73;109779;1265;22053;-78
2023/08/13 00:14:06;;;;;;;8.80;5.30;;;;;;;21.76;53.29;100438.09;109665;1267;21982;-77
2023/08/13 00:16:44;;;;;;;7.70;5.40;;;;;;;21.76;53.36;100441.33;110122;1267;21935;-77
2023/08/13 00:22:12;;;;;;;8.00;5.50;;;;;;;21.71;53.45;100443.30;110046;1264;22315;-78
2023/08/13 00:24:57;;;;;;;7.20;5.20;;;;;;;21.70;53.57;100444.14;110376;1264;23026;-77
2023/08/13 00:27:38;;;;;;;6.80;5.40;;;;;;;21.72;53.60;100441.61;110308;1265;23801;-79
2023/08/13 00:30:17;;;;;;;14.40;6.00;;;;;;;21.69;53.82;100439.40;110413;1263;21940;-77
2023/08/13 00:32:49;;;;;;;10.00;5.20;;;;;;;21.69;53.94;100445.77;110368;1263;21930;-78
2023/08/13 00:35:25;;;;;;;7.50;4.90;;;;;;;21.69;53.96;100444.33;110616;1263;21976;-79
2023/08/13 00:38:01;;;;;;;19.60;6.40;;;;;;;21.69;54.11;100443.85;109975;1269;24426;-80
2023/08/13 00:40:37;;;;;;;10.60;5.70;;;;;;;21.67;54.20;100442.91;109780;1269;22009;-78
2023/08/13 00:43:10;;;;;;;6.20;4.90;;;;;;;21.67;54.30;100443.64;110165;1268;23706;-79
2023/08/13 00:45:49;;;;;;;7.60;5.20;;;;;;;21.68;54.38;100445.66;110063;1269;22608;-79
2023/08/13 00:48:20;;;;;;;11.90;5.90;;;;;;;21.71;54.47;100453.77;109303;1264;23154;-77
2023/08/13 00:50:53;;;;;;;7.40;5.50;;;;;;;21.72;54.46;100454.70;109323;1274;23713;-78
2023/08/13 00:53:33;;;;;;;7.20;5.40;;;;;;;21.74;54.49;100452.11;109023;1274;23139;-79
2023/08/13 00:56:11;;;;;;;7.60;5.60;;;;;;;21.74;54.56;100450.66;109409;1271;23042;-79
2023/08/13 00:58:43;;;;;;;18.20;5.70;;;;;;;21.74;54.58;100451.58;109502;1258;21993;-78
2023/08/13 01:01:13;;;;;;;10.20;5.10;;;;;;;21.73;54.63;100453.92;109374;1269;22850;-79
2023/08/13 01:03:45;;;;;;;7.20;4.50;;;;;;;21.73;54.70;100451.15;109101;1274;21975;-79
2023/08/13 01:06:59;;;;;;;11.90;4.90;;;;;;;21.72;54.80;100452.65;109308;1268;21982;-79
2023/08/13 01:09:59;;;;;;;10.20;5.50;;;;;;;21.66;54.95;100448.35;109402;1273;22750;-79
2023/08/13 01:12:58;;;;;;;13.60;5.00;;;;;;;21.61;55.01;100444.34;109168;1273;23052;-80
2023/08/13 01:15:42;;;;;;;8.10;5.50;;;;;;;21.56;55.07;100445.80;109371;1273;23719;-80
2023/08/13 01:18:21;;;;;;;10.10;4.70;;;;;;;21.50;55.22;100448.21;109370;1273;21988;-78
2023/08/13 01:21:01;;;;;;;7.00;4.80;;;;;;;21.46;55.30;100451.39;109411;1270;23045;-79
2023/08/13 01:23:33;;;;;;;7.40;5.10;;;;;;;21.44;55.56;100452.43;109650;1270;21990;-77
2023/08/13 01:26:17;;;;;;;9.10;5.00;;;;;;;21.46;55.75;100450.84;109075;1275;21985;-78
2023/08/13 01:29:09;;;;;;;7.00;5.00;;;;;;;21.48;55.79;100452.32;109097;1275;22014;-76
2023/08/13 01:31:57;;;;;;;12.10;5.30;;;;;;;21.49;55.87;100448.16;109093;1275;23042;-79
2023/08/13 01:34:32;;;;;;;13.10;6.00;;;;;;;21.51;56.00;100450.85;108992;1275;21991;-79
2023/08/13 01:37:16;;;;;;;8.80;5.00;;;;;;;21.53;56.03;100449.25;109145;1275;21962;-78
2023/08/13 01:39:50;;;;;;;7.30;4.70;;;;;;;21.52;56.11;100445.58;108911;1275;21986;-79
2023/08/13 01:42:29;;;;;;;7.90;4.50;;;;;;;21.47;56.24;100437.17;109207;1275;23145;-78
2023/08/13 01:45:10;;;;;;;7.30;5.50;;;;;;;21.43;56.42;100435.00;109749;1270;22321;-78
2023/08/13 01:47:55;;;;;;;6.60;5.00;;;;;;;21.45;56.66;100443.45;110345;1265;22969;-79
2023/08/13 01:50:29;;;;;;;7.00;5.10;;;;;;;21.44;56.86;100437.75;109835;1270;23653;-80
2023/08/13 01:53:13;;;;;;;7.10;4.60;;;;;;;21.44;56.91;100442.51;109802;1269;24327;-77
2023/08/13 01:55:50;;;;;;;8.10;5.00;;;;;;;21.40;57.07;100437.73;109042;1275;23641;-79
2023/08/13 01:58:28;;;;;;;10.30;4.50;;;;;;;21.34;57.37;100437.28;108627;1282;21994;-78
2023/08/13 02:00:57;;;;;;;9.80;4.60;;;;;;;21.28;57.64;100440.98;108202;1287;23852;-79
2023/08/13 02:03:44;;;;;;;8.60;4.90;;;;;;;21.22;57.64;100441.27;108265;1286;22536;-79
2023/08/13 02:06:22;;;;;;;10.30;5.80;;;;;;;21.19;57.86;100442.37;108240;1287;22474;-79
2023/08/13 02:08:52;;;;;;;11.90;6.00;;;;;;;21.21;58.11;100444.33;108350;1281;23154;-78
2023/08/13 02:11:27;;;;;;;6.90;5.50;;;;;;;21.22;58.11;100442.34;108279;1286;22004;-78
2023/08/13 02:14:01;;;;;;;12.50;5.50;;;;;;;21.19;58.16;100441.69;108542;1281;22054;-78
2023/08/13 02:16:41;;;;;;;9.70;6.00;;;;;;;21.15;58.24;100438.52;109053;1275;21952;-79
2023/08/13 02:22:29;;;;;;;10.70;6.00;;;;;;;21.07;58.71;100446.88;109313;1273;21980;-79
2023/08/13 02:25:04;;;;;;;8.40;5.60;;;;;;;21.06;58.88;100450.15;109520;1273;21991;-78
2023/08/13 02:27:39;;;;;;;7.30;5.30;;;;;;;21.08;58.93;100451.96;109323;1273;22740;-78
2023/08/13 02:30:10;;;;;;;8.30;5.60;;;;;;;21.09;58.97;100452.90;109747;1268;23586;-78
2023/08/13 02:32:48;;;;;;;9.50;4.90;;;;;;;21.10;59.05;100451.81;109620;1267;22948;-78
2023/08/13 02:35:35;;;;;;;12.40;5.50;;;;;;;21.08;59.02;100447.34;109508;1268;22992;-78
2023/08/13 02:38:09;;;;;;;9.10;5.20;;;;;;;21.06;59.14;100450.34;109248;1264;23593;-77
2023/08/13 02:40:45;;;;;;;11.70;6.40;;;;;;;21.06;59.25;100454.19;109649;1267;23054;-77
2023/08/13 02:43:22;;;;;;;10.40;5.40;;;;;;;21.09;59.33;100453.85;109761;1267;23085;-79
2023/08/13 02:45:58;;;;;;;9.40;5.00;;;;;;;21.09;59.32;100450.14;110122;1267;23631;-78
2023/08/13 02:48:32;;;;;;;13.40;5.10;;;;;;;21.09;59.35;100453.12;109365;1272;23762;-78
2023/08/13 02:51:03;;;;;;;9.80;5.50;;;;;;;21.08;59.32;100452.80;108920;1277;23611;-77
2023/08/13 02:53:42;;;;;;;8.40;5.90;;;;;;;21.06;59.43;100456.88;108965;1276;22997;-78
2023/08/13 02:56:20;;;;;;;11.00;5.40;;;;;;;21.05;59.57;100458.02;109077;1273;24219;-77
2023/08/13 02:58:54;;;;;;;6.00;4.60;;;;;;;21.05;59.68;100457.83;109147;1274;22005;-79
2023/08/13 03:01:27;;;;;;;7.40;4.60;;;;;;;21.05;59.71;100460.17;109120;1273;21992;-79
2023/08/13 03:04:03;;;;;;;7.90;4.80;;;;;;;21.04;59.72;100456.50;109140;1273;22024;-77
2023/08/13 03:06:34;;;;;;;9.30;4.40;;;;;;;21.03;59.71;100452.17;109389;1269;22059;-79
2023/08/13 03:09:22;;;;;;;8.20;4.00;;;;;;;21.03;59.82;100456.45;110163;1263;22495;-77
2023/08/13 03:12:07;;;;;;;6.80;4.30;;;;;;;21.04;59.92;100462.17;109629;1270;21997;-78
2023/08/13 03:14:46;;;;;;;10.20;4.30;;;;;;;21.06;59.90;100463.77;109784;1270;21982;-79
2023/08/13 03:17:25;;;;;;;8.70;4.70;;;;;;;21.10;59.82;100462.80;108895;1277;21989;-78
2023/08/13 03:19:59;;;;;;;5.90;4.60;;;;;;;21.13;59.70;100463.73;108929;1276;21994;-79
2023/08/13 03:22:42;;;;;;;6.30;3.40;;;;;;;21.17;59.74;100466.79;109060;1276;22017;-78
2023/08/13 03:25:20;;;;;;;7.20;3.50;;;;;;;21.21;59.79;100471.27;108995;1277;22408;-79
2023/08/13 03:27:57;;;;;;;5.90;3.50;;;;;;;21.25;59.64;100475.34;108928;1277;21976;-78
2023/08/13 03:30:46;;;;;;;6.10;3.60;;;;;;;21.28;59.56;100475.98;108891;1276;21982;-77
2023/08/13 03:33:21;;;;;;;7.80;4.10;;;;;;;21.31;59.43;100476.48;108588;1280;23761;-78
2023/08/13 03:35:56;;;;;;;7.80;4.10;;;;;;;21.33;59.32;100479.72;108968;1273;21988;-77
2023/08/13 03:38:30;;;;;;;8.80;3.60;;;;;;;21.35;59.21;100481.84;108600;1274;22275;-77
2023/08/13 03:41:13;;;;;;;10.10;4.70;;;;;;;21.37;59.28;100484.33;108312;1284;22017;-78
2023/08/13 03:43:45;;;;;;;7.10;3.90;;;;;;;21.38;59.07;100483.50;107977;1290;22057;-78
2023/08/13 03:46:27;;;;;;;15.90;5.40;;;;;;;21.38;59.22;100488.08;107974;1291;22027;-78
2023/08/13 03:49:04;;;;;;;11.40;4.90;;;;;;;21.39;59.19;100488.73;108195;1286;21998;-78
2023/08/13 03:51:36;;;;;;;10.40;3.60;;;;;;;21.39;59.05;100491.54;108148;1289;22996;-77
2023/08/13 03:54:09;;;;;;;7.30;3.80;;;;;;;21.40;59.21;100493.08;107763;1292;22007;-77
2023/08/13 03:56:45;;;;;;;6.90;3.70;;;;;;;21.41;59.24;100494.45;107904;1292;22151;-78
2023/08/13 03:59:23;;;;;;;4.10;3.70;;;;;;;21.42;59.32;100497.52;108256;1285;22157;-77
2023/08/13 04:01:59;;;;;;;5.70;3.60;;;;;;;21.44;59.38;100496.33;108641;1280;23004;-78
2023/08/13 04:04:38;;;;;;;6.20;3.80;;;;;;;21.47;59.25;100490.81;109276;1273;21992;-79
2023/08/13 04:07:17;;;;;;;5.60;3.40;;;;;;;21.47;59.36;100492.71;109320;1273;23060;-79
2023/08/13 04:10:04;;;;;;;6.70;3.70;;;;;;;21.49;59.33;100494.14;109119;1270;23624;-79
2023/08/13 04:12:47;;;;;;;8.90;3.80;;;;;;;21.51;59.29;100493.51;109101;1272;22715;-78
2023/08/13 04:15:30;;;;;;;5.40;4.40;;;;;;;21.52;59.38;100493.35;109515;1268;22699;-79
2023/08/13 04:18:04;;;;;;;6.30;3.60;;;;;;;21.54;59.40;100491.98;109799;1268;22045;-77
2023/08/13 04:20:39;;;;;;;8.20;4.00;;;;;;;21.55;59.27;100490.67;109928;1268;23718;-78
2023/08/13 04:23:11;;;;;;;4.70;3.80;;;;;;;21.55;59.34;100492.05;109269;1273;23573;-78
2023/08/13 04:25:45;;;;;;;10.80;4.50;;;;;;;21.61;59.60;100494.77;108849;1279;23145;-77
2023/08/13 04:28:19;;;;;;;5.20;3.90;;;;;;;21.72;59.65;100493.33;108833;1279;22068;-77
2023/08/13 04:30:55;;;;;;;8.00;3.50;;;;;;;21.80;59.61;100493.07;109027;1274;23053;-78
2023/08/13 04:33:27;;;;;;;6.40;3.70;;;;;;;21.92;59.59;100490.67;109119;1274;23905;-79
2023/08/13 04:36:28;;;;;;;11.50;5.40;;;;;;;22.04;59.32;100492.50;109134;1263;22418;-77
2023/08/13 04:39:10;;;;;;;6.80;4.00;;;;;;;22.14;59.03;100504.58;109289;1274;23106;-78
2023/08/13 04:41:58;;;;;;;4.50;3.60;;;;;;;22.22;58.73;100510.28;109763;1268;24934;-78
2023/08/13 04:44:36;;;;;;;5.50;3.60;;;;;;;22.29;58.59;100509.21;110010;1264;22029;-77
2023/08/13 04:47:18;;;;;;;3.70;3.40;;;;;;;22.36;58.45;100511.41;110637;1264;23493;-79
2023/08/13 04:49:53;;;;;;;6.40;3.70;;;;;;;22.44;58.28;100517.48;110313;1265;22203;-78
2023/08/13 04:52:32;;;;;;;4.50;3.80;;;;;;;22.51;58.06;100517.39;110139;1265;23070;-78
2023/08/13 04:55:07;;;;;;;;;;;;;;;22.57;57.86;100524.70;110032;1268;24038;-79
2023/08/13 04:57:38;;;;;;;8.00;3.80;;;;;;;22.55;58.00;100525.03;109083;1275;23541;-78
2023/08/13 05:00:23;;;;;;;4.60;3.40;;;;;;;22.66;58.00;100529.67;108944;1276;22526;-78
2023/08/13 05:03:03;;;;;;;8.30;4.20;;;;;;;22.74;57.61;100531.43;108934;1275;23064;-78
2023/08/13 05:05:55;;;;;;;9.50;4.00;;;;;;;22.80;57.40;100531.07;108578;1279;23713;-77
2023/08/13 05:08:30;;;;;;;;;;;;;;;22.84;57.39;100531.06;108700;1280;22112;-78
2023/08/13 05:11:39;;;;;;;7.90;3.70;;;;;;;22.80;57.71;100530.87;108716;1279;22214;-80
2023/08/13 05:14:41;;;;;;;5.30;3.60;;;;;;;22.87;57.80;100533.32;108920;1275;22422;-81
2023/08/13 05:24:47;;;;;;;;;;;;;;;;;;;;;
2023/08/13 05:34:19;;;;;;;7.20;4.30;;;;;;;23.58;58.53;100541.30;108097;1292;23663;-79
2023/08/13 05:38:09;;;;;;;4.60;3.90;;;;;;;23.89;58.32;100533.05;107761;1293;23066;-77
2023/08/13 05:41:15;;;;;;;7.60;3.90;;;;;;;24.20;57.70;100538.04;108051;1293;22593;-80
2023/08/13 05:43:53;;;;;;;3.90;3.50;;;;;;;24.41;57.12;100540.92;107380;1297;23757;-82
2023/08/13 05:47:09;;;;;;;;;;;;;;;;;;;;;
2023/08/13 05:50:56;;;;;;;;;;;;;;;;;;;;;
2023/08/13 05:58:12;;;;;;;3.70;3.20;;;;;;;24.67;56.61;100548.25;107428;1300;22022;-82
2023/08/13 06:01:21;;;;;;;5.80;3.30;;;;;;;24.75;56.52;100545.08;107873;1294;22127;-81
2023/08/13 06:09:19;;;;;;;5.20;4.10;;;;;;;24.84;56.46;100551.89;108196;1293;22007;-81
2023/08/13 06:12:42;;;;;;;4.90;4.20;;;;;;;24.84;56.66;100553.96;107969;1294;22009;-81
2023/08/13 06:15:26;;;;;;;11.90;4.20;;;;;;;24.87;56.64;100556.02;107884;1293;23107;-81
2023/08/13 06:18:26;;;;;;;5.10;4.10;;;;;;;24.87;56.81;100560.80;108134;1293;23756;-81
2023/08/13 06:21:03;;;;;;;6.90;4.00;;;;;;;24.84;56.78;100561.23;108162;1289;22049;-81
2023/08/13 06:23:40;;;;;;;5.10;4.10;;;;;;;24.77;56.84;100561.04;108485;1287;21996;-80
2023/08/13 06:26:11;;;;;;;6.60;4.00;;;;;;;24.76;57.40;100565.04;108459;1287;22756;-80
2023/08/13 06:28:54;;;;;;;4.80;4.30;;;;;;;24.81;57.41;100566.34;108135;1292;23112;-80
2023/08/13 06:31:34;;;;;;;7.30;4.30;;;;;;;24.84;57.33;100568.59;107680;1296;22051;-80
2023/08/13 06:34:08;;;;;;;10.30;4.50;;;;;;;24.89;58.01;100560.45;107893;1291;23892;-83
2023/08/13 06:36:35;;;;;;;8.80;4.50;;;;;;;25.12;57.76;100572.32;108088;1284;23010;-80
2023/08/13 06:39:02;;;;;;;8.10;4.20;;;;;;;25.39;58.01;100571.36;107976;1291;23796;-77
2023/08/13 06:41:31;;;;;;;4.80;4.30;;;;;;;25.80;57.98;100573.40;107689;1291;22024;-80
2023/08/13 06:44:03;;;;;;;8.30;4.70;;;;;;;26.32;57.44;100574.14;108156;1292;22002;-79
2023/08/13 06:46:37;;;;;;;5.40;4.80;;;;;;;26.86;56.07;100571.32;108961;1271;22435;-80
2023/08/13 06:49:10;;;;;;;6.40;4.80;;;;;;;27.38;54.58;100573.96;109830;1263;22728;-79
2023/08/13 06:51:40;;;;;;;4.50;4.10;;;;;;;27.77;53.29;100577.03;110437;1263;22237;-79
2023/08/13 06:54:22;;;;;;;4.30;4.00;;;;;;;28.14;52.48;100581.45;110805;1263;22184;-80
2023/08/13 06:56:54;;;;;;;5.90;5.20;;;;;;;28.51;51.61;100579.25;109414;1270;23734;-81
2023/08/13 06:59:30;;;;;;;6.20;4.30;;;;;;;28.83;50.64;100583.81;109293;1275;22005;-79
2023/08/13 07:02:20;;;;;;;8.00;4.50;;;;;;;29.22;50.47;100579.91;109055;1277;22002;-80
2023/08/13 07:04:55;;;;;;;8.30;4.70;;;;;;;29.69;49.66;100583.03;109346;1276;23745;-80
2023/08/13 07:07:44;;;;;;;3.60;3.30;;;;;;;30.09;48.56;100589.93;109372;1276;22010;-80
2023/08/13 07:10:28;;;;;;;4.90;4.20;;;;;;;30.38;47.00;100590.49;109067;1280;22459;-80
2023/08/13 07:13:26;;;;;;;6.20;4.10;;;;;;;30.48;46.40;100600.38;109105;1280;23739;-79
2023/08/13 07:15:56;;;;;;;7.90;3.60;;;;;;;30.64;46.67;100601.00;108990;1279;23345;-80
2023/08/13 07:18:24;;;;;;;5.70;3.90;;;;;;;30.97;46.16;100606.27;108866;1279;22070;-78
2023/08/13 07:21:05;;;;;;;5.50;3.90;;;;;;;31.33;45.39;100612.69;108549;1276;22017;-80
2023/08/13 07:23:37;;;;;;;4.80;5.30;;;;;;;31.61;44.49;100614.48;108204;1282;23068;-79
2023/08/13 07:26:06;;;;;;;4.20;3.70;;;;;;;31.84;43.77;100612.66;109041;1281;21992;-81
2023/08/13 07:28:35;;;;;;;10.60;4.40;;;;;;;32.04;43.48;100609.54;108867;1274;22633;-81
2023/08/13 07:31:07;;;;;;;6.00;4.50;;;;;;;32.20;42.72;100613.09;109173;1277;21987;-80
2023/08/13 07:33:52;;;;;;;6.10;3.80;;;;;;;32.18;42.09;100605.60;109192;1268;23063;-80
2023/08/13 07:36:29;;;;;;;7.90;4.00;;;;;;;32.24;42.46;100617.33;108761;1277;22026;-79
2023/08/13 07:39:21;;;;;;;7.80;3.70;;;;;;;32.36;42.24;100625.00;108938;1275;419256;-82
2023/08/13 07:41:55;;;;;;;4.90;3.80;;;;;;;32.43;41.60;100626.30;109107;1275;21987;-84
2023/08/13 07:44:47;;;;;;;3.90;3.50;;;;;;;32.40;41.86;100629.39;108975;1277;21995;-81
2023/08/13 07:47:17;;;;;;;5.70;4.10;;;;;;;32.45;41.83;100627.23;108834;1279;22016;-82
2023/08/13 07:49:47;;;;;;;6.10;3.70;;;;;;;32.35;41.46;100628.59;108585;1286;22036;-82
2023/08/13 07:52:16;;;;;;;11.00;5.00;;;;;;;32.04;41.57;100631.45;108473;1285;22488;-80
2023/08/13 07:54:51;;;;;;;4.10;3.40;;;;;;;31.74;42.04;100632.48;108617;1283;22862;-81
2023/08/13 07:57:30;;;;;;;7.90;4.50;;;;;;;31.46;42.80;100634.16;108711;1283;22002;-79
2023/08/13 08:00:10;;;;;;;6.30;4.40;;;;;;;31.12;43.31;100636.96;108875;1283;23100;-79
2023/08/13 08:03:14;;;;;;;5.40;4.10;;;;;;;30.72;43.94;100636.55;108833;1282;23167;-79
2023/08/13 08:05:49;;;;;;;10.20;4.10;;;;;;;30.40;44.50;100636.69;108668;1279;22009;-80
2023/08/13 08:08:22;;;;;;;4.80;3.80;;;;;;;30.16;45.04;100637.70;108960;1279;22008;-80
2023/08/13 08:11:19;;;;;;;4.30;3.90;;;;;;;29.83;45.46;100636.33;108764;1284;22003;-79
2023/08/13 08:13:53;;;;;;;6.10;4.10;;;;;;;29.56;45.98;100638.14;108904;1279;21973;-81
2023/08/13 08:16:39;;;;;;;11.60;4.30;;;;;;;29.32;46.84;100645.46;109112;1279;21992;-80
2023/08/13 08:19:20;;;;;;;5.30;4.50;;;;;;;29.15;47.22;100645.21;108780;1283;22038;-79
2023/08/13 08:22:05;;;;;;;4.60;4.00;;;;;;;28.98;47.64;100651.21;108845;1283;24413;-82
2023/08/13 08:24:42;;;;;;;21.30;5.30;;;;;;;28.81;48.02;100653.48;108773;1282;22064;-81
2023/08/13 08:27:17;;;;;;;5.80;4.70;;;;;;;28.66;48.54;100649.20;108875;1281;21999;-81
2023/08/13 08:29:50;;;;;;;4.80;4.30;;;;;;;28.54;48.74;100646.55;108897;1278;22515;-80
2023/08/13 08:32:36;;;;;;;5.20;4.30;;;;;;;28.41;49.17;100644.88;109191;1278;22963;-79
2023/08/13 08:35:12;;;;;;;6.80;4.40;;;;;;;28.40;49.61;100645.38;109650;1278;22052;-79
2023/08/13 08:37:53;;;;;;;5.60;3.10;;;;;;;28.39;49.76;100645.72;109173;1274;22007;-80
2023/08/13 08:40:25;;;;;;;5.80;3.60;;;;;;;28.49;49.73;100647.98;109322;1274;22080;-79
2023/08/13 08:46:29;;;;;;;5.70;3.60;;;;;;;28.90;49.23;100647.30;108792;1279;22005;-81
2023/08/13 08:49:15;;;;;;;4.10;3.70;;;;;;;28.99;48.52;100645.07;109144;1279;24518;-80
2023/08/13 08:51:53;;;;;;;11.60;8.70;;;;;;;29.19;49.19;100644.73;109065;1280;22018;-80
2023/08/13 08:54:52;;;;;;;3.40;3.10;;;;;;;29.75;48.85;100645.83;109146;1279;22081;-81
2023/08/13 08:57:32;;;;;;;4.70;3.40;;;;;;;30.17;47.14;100643.46;109154;1279;21988;-80
2023/08/13 09:00:08;;;;;;;12.40;3.90;;;;;;;30.46;46.42;100641.76;109091;1279;22992;-81
2023/08/13 09:02:48;;;;;;;4.30;3.20;;;;;;;30.83;45.92;100645.14;109063;1276;23244;-80
2023/08/13 09:05:29;;;;;;;3.20;2.50;;;;;;;31.09;44.79;100643.95;109110;1277;22076;-80
2023/08/13 09:08:24;;;;;;;5.00;2.60;;;;;;;31.26;44.27;100642.47;108678;1283;22002;-80
2023/08/13 09:11:45;;;;;;;5.20;3.00;;;;;;;31.60;43.95;100639.02;108664;1282;22010;-78
2023/08/13 09:14:30;;;;;;;6.20;3.60;;;;;;;32.04;43.56;100635.82;108776;1281;22363;-79
2023/08/13 09:17:19;;;;;;;7.40;3.10;;;;;;;32.42;42.54;100634.67;109064;1274;21994;-79
2023/08/13 09:20:38;;;;;;;6.60;2.80;;;;;;;32.73;41.71;100632.34;109385;1274;21988;-80
2023/08/13 09:23:44;;;;;;;9.50;5.00;;;;;;;32.94;40.80;100639.30;108856;1278;22345;-80
2023/08/13 09:26:48;;;;;;;6.90;3.10;;;;;;;32.95;40.28;100633.03;108993;1275;22008;-80
2023/08/13 09:29:34;;;;;;;2.80;2.40;;;;;;;32.91;40.35;100635.30;109081;1275;22019;-77
2023/08/13 09:32:12;;;;;;;4.70;2.50;;;;;;;32.98;40.53;100629.88;108995;1275;22437;-79
2023/08/13 09:35:21;;;;;;;11.50;2.80;;;;;;;33.06;39.99;100628.27;108975;1279;21995;-82
2023/08/13 09:38:03;;;;;;;6.10;2.70;;;;;;;33.17;40.17;100620.98;109161;1279;22006;-82
2023/08/13 09:41:14;;;;;;;4.00;2.00;;;;;;;33.46;39.63;100622.05;109156;1265;23770;-80
2023/08/13 09:44:13;;;;;;;16.90;3.90;;;;;;;33.65;38.78;100622.23;109261;1273;22415;-79
2023/08/13 09:47:23;;;;;;;9.60;2.70;;;;;;;33.70;38.12;100622.33;109246;1276;22239;-80
2023/08/13 09:50:48;;;;;;;2.90;1.90;;;;;;;33.42;38.07;100622.41;109080;1281;22168;-80
2023/08/13 09:53:24;;;;;;;7.90;2.40;;;;;;;33.35;38.44;100622.01;108768;1282;23664;-83
2023/08/13 09:56:37;;;;;;;42.30;3.90;;;;;;;33.41;38.73;100621.73;108824;1282;22244;-80
2023/08/13 09:59:30;;;;;;;2.50;1.40;;;;;;;33.63;38.19;100622.22;108922;1277;22917;-80
2023/08/13 10:02:43;;;;;;;4.90;1.80;;;;;;;33.68;37.63;100630.56;109051;1282;22088;-82
2023/08/13 10:05:19;;;;;;;2.30;1.40;;;;;;;33.89;37.42;100631.16;108988;1282;21769;-81
2023/08/13 10:07:59;;;;;;;5.20;1.50;;;;;;;34.12;36.44;100626.35;109007;1283;22645;-82
2023/08/13 10:10:35;;;;;;;7.70;1.90;;;;;;;34.22;35.80;100626.45;108833;1281;22011;-82
2023/08/13 10:13:13;;;;;;;12.80;11.30;;;;;;;34.11;35.99;100630.21;108993;1281;23244;-79
2023/08/13 10:15:53;;;;;;;5.90;1.60;;;;;;;33.96;35.71;100631.69;109083;1281;22055;-82
2023/08/13 10:18:29;;;;;;;4.90;1.60;;;;;;;33.55;35.82;100631.34;109039;1281;22093;-80
2023/08/13 10:21:00;;;;;;;6.10;1.70;;;;;;;33.23;36.78;100635.21;109322;1277;22098;-80
2023/08/13 10:23:37;;;;;;;2.90;1.50;;;;;;;33.17;37.21;100633.20;109493;1277;22115;-80
2023/08/13 10:26:35;;;;;;;8.20;1.50;;;;;;;33.20;37.17;100634.08;110072;1271;21996;-82
2023/08/13 10:29:25;;;;;;;6.50;3.60;;;;;;;33.25;37.13;100634.69;110867;1265;21999;-80
2023/08/13 10:32:10;;;;;;;11.80;2.50;;;;;;;33.15;36.89;100632.23;111312;1264;21977;-81
2023/08/13 10:35:37;;;;;;;12.70;3.10;;;;;;;32.97;37.14;100634.13;110787;1269;22495;-85
2023/08/13 10:38:38;;;;;;;4.10;1.80;;;;;;;33.09;37.89;100632.47;109426;1273;21980;-80
2023/08/13 10:41:48;;;;;;;6.00;2.20;;;;;;;33.36;37.72;100635.58;109420;1273;23087;-78
2023/08/13 10:44:47;;;;;;;7.40;2.10;;;;;;;33.52;37.34;100632.06;108933;1278;23715;-78
2023/08/13 10:48:00;;;;;;;5.70;1.50;;;;;;;33.45;37.32;100635.86;109208;1277;23739;-78
2023/08/13 10:50:56;;;;;;;3.90;1.40;;;;;;;33.23;36.09;100639.04;108900;1277;23711;-79
2023/08/13 10:53:51;;;;;;;3.10;1.50;;;;;;;32.82;35.82;100643.66;109430;1273;21989;-79
2023/08/13 10:56:29;;;;;;;6.00;1.90;;;;;;;32.44;36.19;100640.15;109841;1269;22084;-77
2023/08/13 10:59:18;;;;;;;2.20;1.40;;;;;;;32.25;37.07;100635.87;109778;1269;23631;-79
2023/08/13 11:02:22;;;;;;;3.10;1.40;;;;;;;32.24;37.15;100638.02;110082;1269;22018;-80
2023/08/13 11:05:04;;;;;;;2.30;1.70;;;;;;;32.21;37.06;100637.63;109491;1274;24675;-77
2023/08/13 11:07:51;;;;;;;2.50;1.20;;;;;;;32.17;37.20;100636.86;108899;1282;21997;-79
2023/08/13 11:10:32;;;;;;;1.80;1.20;;;;;;;32.12;36.75;100634.08;108983;1279;24394;-79
2023/08/13 11:13:22;;;;;;;1.80;1.20;;;;;;;31.92;36.53;100634.76;108859;1281;23761;-80
2023/08/13 11:16:17;;;;;;;4.20;1.40;;;;;;;31.69;37.51;100630.02;108959;1279;23046;-78
2023/08/13 11:18:54;;;;;;;3.20;1.50;;;;;;;31.70;37.49;100638.61;108514;1285;23122;-78
2023/08/13 11:21:30;;;;;;;3.00;1.60;;;;;;;31.68;37.24;100634.36;108478;1285;23057;-78
2023/08/13 11:24:02;;;;;;;3.30;1.20;;;;;;;31.59;37.09;100633.30;108306;1285;22004;-78
2023/08/13 11:26:41;;;;;;;4.20;1.40;;;;;;;31.49;37.29;100632.52;108699;1285;22031;-80
2023/08/13 11:29:22;;;;;;;1.90;1.10;;;;;;;31.37;37.14;100635.61;108463;1285;23001;-79
2023/08/13 11:31:53;;;;;;;11.30;1.70;;;;;;;31.24;36.93;100630.84;108375;1279;22771;-79
2023/08/13 11:34:29;;;;;;;4.50;1.40;;;;;;;31.14;36.82;100631.94;108527;1284;23783;-79
2023/08/13 11:37:01;;;;;;;7.70;2.00;;;;;;;30.99;37.02;100628.48;108734;1284;23029;-79
2023/08/13 11:39:46;;;;;;;1.90;1.60;;;;;;;30.89;37.27;100631.98;108785;1284;23300;-80
2023/08/13 11:42:15;;;;;;;2.30;1.30;;;;;;;30.88;37.64;100631.17;108648;1281;23103;-80
2023/08/13 11:44:51;;;;;;;6.50;1.60;;;;;;;30.96;37.85;100631.85;109365;1270;21981;-79
2023/08/13 11:47:31;;;;;;;4.60;1.40;;;;;;;31.03;37.58;100631.75;109938;1269;23598;-80
2023/08/13 11:50:03;;;;;;;2.80;1.30;;;;;;;31.08;37.23;100631.33;109196;1275;22001;-78
2023/08/13 11:52:42;;;;;;;3.40;1.00;;;;;;;31.10;37.04;100631.05;108868;1276;22077;-79
2023/08/13 11:55:15;;;;;;;2.00;1.10;;;;;;;31.12;36.82;100634.78;109029;1267;23053;-79
2023/08/13 11:57:47;;;;;;;2.90;1.30;;;;;;;31.19;36.74;100636.54;109100;1276;22974;-79
2023/08/13 12:00:19;;;;;;;2.60;1.40;;;;;;;31.19;36.32;100637.16;108718;1281;23010;-79
2023/08/13 12:02:56;;;;;;;2.90;1.30;;;;;;;31.16;36.27;100639.55;108701;1280;24107;-79
2023/08/13 12:05:28;;;;;;;6.40;1.20;;;;;;;31.11;36.52;100638.07;108511;1286;22049;-79
2023/08/13 12:08:02;;;;;;;2.50;1.50;;;;;;;31.03;36.53;100636.77;108623;1279;22479;-78
2023/08/13 12:10:38;;;;;;;3.80;1.40;;;;;;;30.89;36.76;100640.20;109108;1273;24461;-78
2023/08/13 12:13:10;;;;;;;2.50;1.60;;;;;;;30.82;37.10;100639.23;109016;1280;22770;-78
2023/08/13 12:15:41;;;;;;;5.60;1.40;;;;;;;30.81;37.49;100637.84;108827;1281;22001;-79
2023/08/13 12:18:09;;;;;;;7.00;2.10;;;;;;;30.84;37.58;100637.03;108802;1277;21996;-78
2023/08/13 12:20:46;;;;;;;2.60;1.00;;;;;;;30.87;37.59;100633.52;108626;1282;24336;-79
2023/08/13 12:23:25;;;;;;;4.90;1.70;;;;;;;30.83;37.24;100629.30;108844;1278;22010;-78
2023/08/13 12:26:19;;;;;;;6.20;1.80;;;;;;;30.70;37.52;100630.14;109472;1271;22843;-78
2023/08/13 12:28:53;;;;;;;2.20;1.40;;;;;;;30.65;37.98;100633.95;109210;1277;22601;-80
2023/08/13 12:31:25;;;;;;;1.20;0.90;;;;;;;30.65;38.01;100632.00;108932;1275;22149;-81
2023/08/13 12:34:01;;;;;;;4.60;1.60;;;;;;;30.58;37.81;100630.65;109109;1275;22453;-78
2023/08/13 12:36:36;;;;;;;5.00;1.20;;;;;;;30.47;37.84;100634.98;109153;1275;22148;-80
2023/08/13 12:39:07;;;;;;;4.20;1.30;;;;;;;30.41;37.96;100634.66;109293;1275;22000;-80
2023/08/13 12:41:37;;;;;;;3.80;1.20;;;;;;;30.36;37.95;100637.66;109285;1275;22021;-80
2023/08/13 12:44:16;;;;;;;2.40;1.30;;;;;;;30.27;38.14;100630.48;108902;1279;22035;-78
2023/08/13 12:46:47;;;;;;;;;;;;;;;30.23;38.18;100629.54;109251;1273;22034;-80
2023/08/13 12:49:24;;;;;;;2.90;1.40;;;;;;;30.11;38.49;100628.20;109638;1268;22018;-80
2023/08/13 12:51:57;;;;;;;2.80;1.20;;;;;;;30.11;38.25;100622.65;109783;1268;21988;-80
2023/08/13 12:54:25;;;;;;;3.30;1.30;;;;;;;30.10;38.16;100616.30;109371;1273;23628;-80
2023/08/13 12:57:01;;;;;;;3.30;1.20;;;;;;;30.10;38.49;100620.10;109013;1279;22010;-82
2023/08/13 12:59:30;;;;;;;2.30;1.30;;;;;;;30.10;38.34;100622.63;108774;1282;23714;-79